Latest Weather Observations for Canberra

IDN60901

Issued at 11:01 am EST Tuesday 19 June 2018 (issued every 10 minutes, with the page automatically refreshed every 10 minutes)

About weather observations | Map of Canberra area stations | Latest observations for Canberra area | Other Formats
Station Details ID: 070351 Name: CANBERRA AIRPORT Lat: -35.31 Lon: 149.20 Height: 577.05 m
Data from the previous 72 hours. | See also: Recent months at Canberra
Date/Time
EST
Temp
°C
App
Temp
°C
Dew
Point
°C
Rel
Hum
%
Delta-T
°C
Wind Press
QNH
hPa
Press
MSL
hPa
Rain since
9am
mm
Dir  Spd
km/h
Gust
km/h
Spd
kts
Gust
kts
19/10:30am 10.1 2.4 3.4 63 3.0 S 33 39 18 21 1026.3 1027.3 0.0
19/10:00am 8.8 2.4 3.4 69 2.4 SSW 26 32 14 17 1026.4 1027.5 0.0
19/09:30am 8.1 0.0 3.2 71 2.2 S 35 48 19 26 1026.2 1027.2 0.0
19/09:00am 7.6 0.4 2.9 72 2.0 SSW 30 39 16 21 1025.5 1026.5 0.2
19/08:30am 7.1 -0.6 2.2 71 2.1 S 32 43 17 23 1025.2 1026.3 0.2
19/08:00am 6.7 0.5 2.0 72 2.0 S 24 30 13 16 1024.7 1025.7 0.2
19/07:30am 5.7 0.4 1.6 75 1.7 SSE 19 30 10 16 1024.4 1025.4 0.2
19/07:00am 6.3 -1.1 1.8 73 1.9 S 30 39 16 21 1024.0 1025.0 0.2
19/06:30am 6.3 -1.7 1.6 72 2.0 S 33 48 18 26 1023.8 1024.8 0.2
19/06:00am 5.8 -1.2 1.7 75 1.7 S 28 37 15 20 1023.2 1024.2 0.2
19/05:30am 5.4 0.5 1.7 77 1.5 S 17 26 9 14 1023.1 1024.1 0.2
19/05:00am 5.6 -0.7 1.5 75 1.7 SSW 24 33 13 18 1022.9 1023.9 0.2
19/04:30am 6.2 -1.2 2.1 75 1.7 S 30 43 16 23 1022.8 1023.8 0.2
19/04:00am 5.9 -0.4 1.6 74 1.8 S 24 35 13 19 1022.8 1023.8 0.2
19/03:30am 6.0 -2.0 1.7 74 1.8 S 33 41 18 22 1022.8 1023.8 0.2
19/03:00am 6.0 -1.4 1.7 74 1.8 S 30 48 16 26 1022.9 1023.9 0.2
19/02:59am 5.9 -1.5 1.6 74 1.8 S 30 48 16 26 1022.9 1023.9 0.2
19/02:30am 6.2 -1.6 1.5 72 2.0 S 32 44 17 24 1022.8 1023.8 0.2
19/02:08am 5.7 -2.2 1.2 73 1.8 S 32 50 17 27 1022.9 1023.9 0.2
19/02:00am 5.7 -2.8 1.2 73 1.8 S 35 50 19 27 1022.8 1023.8 0.2
19/01:30am 5.4 -1.8 0.6 71 1.9 S 28 41 15 22 1022.6 1023.6 0.2
19/01:00am 5.4 -1.4 0.8 72 1.9 S 26 39 14 21 1022.7 1023.7 0.2
19/12:30am 5.4 0.3 1.0 73 1.8 SSW 17 30 9 16 1022.8 1023.8 0.2
19/12:00am 5.5 -0.9 1.2 74 1.8 S 24 33 13 18 1022.6 1023.6 0.2
 
Date/Time
EST
Temp
°C
App
Temp
°C
Dew
Point
°C
Rel
Hum
%
Delta-T
°C
Wind Press
QNH
hPa
Press
MSL
hPa
Rain since
9am
mm
Dir  Spd
km/h
Gust
km/h
Spd
kts
Gust
kts
18/11:30pm 5.6 -1.1 1.3 74 1.8 S 26 39 14 21 1022.8 1023.8 0.2
18/11:00pm 5.7 2.6 1.6 75 1.7 SSE 7 26 4 14 1022.9 1023.9 0.2
18/10:30pm 4.9 2.3 0.9 75 1.6 SE 4 9 2 5 1022.9 1023.9 0.2
18/10:00pm 5.1 2.2 1.2 76 1.6 S 6 13 3 7 1022.7 1023.7 0.2
18/09:30pm 4.9 1.4 1.0 76 1.6 SSW 9 11 5 6 1022.6 1023.6 0.2
18/09:00pm 3.6 0.5 0.3 79 1.3 SE 6 7 3 4 1022.5 1023.5 0.2
18/08:30pm 5.6 2.1 1.2 73 1.8 SE 9 11 5 6 1022.4 1023.4 0.2
18/08:00pm 6.3 2.4 1.0 69 2.2 S 11 15 6 8 1022.7 1023.7 0.2
18/07:30pm 6.7 2.6 2.4 74 1.8 SSW 13 20 7 11 1022.5 1023.5 0.2
18/07:00pm 7.7 3.0 3.4 74 1.9 S 17 26 9 14 1022.3 1023.3 0.2
18/06:30pm 8.3 3.3 3.6 72 2.1 S 19 30 10 16 1021.5 1022.5 0.2
18/06:00pm 8.3 4.0 3.4 71 2.2 SSE 15 20 8 11 1021.0 1022.0 0.2
18/05:30pm 8.7 4.0 3.1 68 2.5 S 17 28 9 15 1020.8 1021.8 0.2
18/05:00pm 9.1 4.9 3.9 70 2.3 SW 15 32 8 17 1020.6 1021.6 0.2
18/04:30pm 9.5 5.7 5.7 77 1.8 SSW 15 19 8 10 1020.2 1021.1 0.2
18/04:00pm 9.8 5.6 5.6 75 2.0 S 17 22 9 12 1020.0 1020.9 0.2
18/03:30pm 9.3 6.0 6.2 81 1.5 SSW 13 17 7 9 1019.7 1020.7 0.0
18/03:00pm 10.8 6.8 4.7 66 2.8 S 15 20 8 11 1019.7 1020.7 0.0
18/02:30pm 10.9 6.9 5.0 67 2.8 SW 15 20 8 11 1019.5 1020.5 0.0
18/02:00pm 12.0 4.9 3.3 55 4.0 S 30 44 16 24 1019.3 1020.3 0.0
18/01:30pm 11.5 4.8 3.5 58 3.7 S 28 35 15 19 1019.1 1020.1 0.0
18/01:00pm 12.3 5.6 3.5 55 4.0 S 28 37 15 20 1019.0 1019.9 0.0
18/12:30pm 11.3 5.7 3.6 59 3.5 S 22 32 12 17 1019.2 1020.2 0.0
18/12:00pm 11.1 4.0 3.6 60 3.4 S 30 41 16 22 1019.3 1020.3 0.0
18/11:39am 11.4 3.8 3.7 59 3.5 S 33 52 18 28 1019.6 1020.6 0.0
18/11:30am 11.2 4.6 4.2 62 3.2 S 28 37 15 20 1019.6 1020.6 0.0
18/11:00am 10.6 6.0 3.9 63 3.1 S 17 24 9 13 1020.0 1020.9 0.0
18/10:30am 10.2 2.7 3.3 62 3.1 S 32 43 17 23 1019.9 1020.8 0.0
18/10:00am 9.7 2.2 3.4 65 2.8 S 32 48 17 26 1019.4 1020.4 0.0
18/09:30am 9.0 0.5 3.2 67 2.6 S 37 48 20 26 1018.9 1019.8 0.0
18/09:23am 9.1 1.0 3.3 67 2.6 S 35 48 19 26 1018.9 1019.8 0.0
18/09:00am 8.5 4.3 3.6 71 2.2 SSE 15 32 8 17 1018.6 1019.5 0.2
18/08:30am 6.3 4.8 2.8 78 1.5 CALM 0 0 0 0 1018.4 1019.3 0.2
18/08:00am 3.5 0.4 1.5 87 0.8 ENE 7 11 4 6 1018.1 1019.0 0.0
18/07:30am 2.4 -0.6 0.8 89 0.6 NW 6 11 3 6 1017.7 1018.7 0.0
18/07:00am 2.3 -0.7 0.7 89 0.6 ENE 6 9 3 5 1017.4 1018.3 0.0
18/06:30am 3.8 0.4 1.8 87 0.8 SSW 9 11 5 6 1017.0 1017.9 0.0
18/06:00am 3.7 0.9 1.9 88 0.7 SSE 6 7 3 4 1016.9 1017.8 0.0
18/05:30am 2.9 -1.0 1.3 89 0.6 S 11 22 6 12 1016.8 1017.7 0.0
18/05:00am 4.6 0.4 1.8 82 1.2 S 13 17 7 9 1016.4 1017.3 0.0
18/04:30am 3.0 0.2 1.8 92 0.5 NW 6 7 3 4 1016.4 1017.3 0.0
18/04:00am 4.0 1.1 2.7 91 0.5 E 7 9 4 5 1016.5 1017.4 0.0
18/03:30am 3.1 -0.2 2.2 94 0.4 NNE 9 11 5 6 1016.0 1016.9 0.0
18/03:00am 3.6 0.3 2.3 91 0.5 N 9 9 5 5 1015.9 1016.8 0.0
18/02:30am 4.3 1.0 2.5 88 0.8 E 9 11 5 6 1016.0 1016.9 0.0
18/02:00am 4.1 0.8 2.5 89 0.7 NNE 9 11 5 6 1015.6 1016.5 0.0
18/01:30am 5.1 1.8 2.3 82 1.2 SSE 9 11 5 6 1015.3 1016.2 0.0
18/01:00am 5.0 2.2 3.0 87 0.9 SW 7 9 4 5 1015.2 1016.1 0.0
18/12:30am 4.8 3.0 3.5 91 0.6 S 2 7 1 4 1015.2 1016.1 0.0
18/12:00am 4.3 1.8 3.7 96 0.3 SSE 6 11 3 6 1014.9 1015.8 0.0
 
Date/Time
EST
Temp
°C
App
Temp
°C
Dew
Point
°C
Rel
Hum
%
Delta-T
°C
Wind Press
QNH
hPa
Press
MSL
hPa
Rain since
9am
mm
Dir  Spd
km/h
Gust
km/h
Spd
kts
Gust
kts
17/11:30pm 4.4 3.0 3.5 94 0.4 CALM 0 0 0 0 1014.7 1015.6 0.0
17/11:00pm 4.5 3.1 3.8 95 0.3 CALM 0 0 0 0 1014.6 1015.4 0.0
17/10:30pm 4.1 1.3 3.2 94 0.4 S 7 7 4 4 1014.4 1015.2 0.0
17/10:00pm 4.3 2.4 3.0 91 0.6 E 2 6 1 3 1014.0 1014.9 0.0
17/09:30pm 3.9 1.0 2.7 92 0.5 ESE 7 9 4 5 1013.6 1014.5 0.0
17/09:00pm 4.3 1.3 1.7 83 1.1 W 7 11 4 6 1013.3 1014.2 0.0
17/08:30pm 5.2 1.6 3.1 86 0.9 WNW 11 15 6 8 1013.2 1014.1 0.0
17/08:00pm 4.8 -0.5 3.0 88 0.8 NW 20 26 11 14 1012.9 1013.7 0.0
17/07:30pm 5.0 1.1 3.2 88 0.8 NNW 13 19 7 10 1013.0 1013.8 0.0
17/07:00pm 4.9 0.5 2.9 87 0.8 N 15 19 8 10 1012.7 1013.5 0.0
17/06:30pm 4.9 0.5 2.9 87 0.8 N 15 19 8 10 1012.6 1013.4 0.0
17/06:00pm 4.5 -0.3 2.7 88 0.8 N 17 20 9 11 1012.2 1013.1 0.0
17/05:30pm 4.7 -0.1 2.6 86 0.9 NNW 17 26 9 14 1012.2 1013.1 0.0
17/05:00pm 4.4 -1.4 2.1 85 1.0 NNW 22 33 12 18 1011.9 1012.8 0.0
17/04:30pm 5.3 -0.5 2.1 80 1.3 NNW 22 30 12 16 1011.7 1012.5 0.0
17/04:00pm 5.9 -0.7 2.2 77 1.6 NNW 26 32 14 17 1011.9 1012.8 0.0
17/03:30pm 6.7 0.2 2.6 75 1.8 NNW 26 33 14 18 1011.4 1012.2 0.0
17/03:00pm 5.8 -0.4 2.3 78 1.5 NNW 24 33 13 18 1011.2 1012.0 0.0
17/02:30pm 6.8 -0.7 3.2 78 1.6 NNW 32 41 17 22 1011.0 1011.8 0.0
17/02:00pm 6.0 -2.2 2.5 78 1.5 NW 35 48 19 26 1010.8 1011.6 0.0
17/01:30pm 6.1 -2.1 2.7 79 1.5 NW 35 44 19 24 1010.8 1011.6 0.0
17/01:00pm 6.5 -1.1 2.9 78 1.6 NNW 32 50 17 27 1010.8 1011.6 0.0
17/12:59pm 6.2 -1.1 2.7 78 1.5 NNW 30 50 16 27 1010.8 1011.6 0.0
17/12:30pm 5.5 -2.3 1.4 75 1.7 NNW 32 44 17 24 1010.9 1011.7 0.0
17/12:00pm 6.6 -1.3 2.1 73 1.9 NNW 33 46 18 25 1011.3 1012.1 0.0
17/11:30am 5.4 -2.0 1.7 77 1.5 NNW 30 39 16 21 1011.5 1012.3 0.0
17/11:00am 5.6 -2.1 2.3 79 1.4 NNW 32 37 17 20 1011.8 1012.7 0.0
17/10:30am 5.5 -2.2 2.3 80 1.3 NNW 32 39 17 21 1011.7 1012.5 0.0
17/10:00am 5.2 -2.6 1.5 77 1.5 NW 32 43 17 23 1011.8 1012.7 0.0
17/09:30am 5.2 -2.6 1.5 77 1.5 NW 32 39 17 21 1011.3 1012.1 0.0
17/09:00am 4.9 -2.2 1.4 78 1.4 NNW 28 35 15 19 1011.5 1012.3 1.4
17/08:30am 3.7 -3.0 1.3 84 1.0 NNW 26 32 14 17 1011.4 1012.2 1.4
17/08:00am 3.6 -3.9 1.0 83 1.0 NNW 30 33 16 18 1011.4 1012.2 1.4
17/07:30am 3.1 -3.3 0.8 85 0.9 NNW 24 32 13 17 1011.3 1012.1 1.4
17/07:00am 3.1 -2.7 0.2 81 1.1 NNW 20 28 11 15 1011.2 1012.0 1.4
17/06:30am 2.7 -2.5 0.3 84 0.9 N 17 22 9 12 1011.2 1012.0 1.4
17/06:00am 3.1 -2.5 1.0 86 0.8 NNW 20 26 11 14 1011.0 1011.8 1.4
17/05:30am 3.1 -3.3 1.2 87 0.8 NNW 24 30 13 16 1010.8 1011.6 1.4
17/05:00am 3.1 -3.3 1.2 87 0.8 NNW 24 30 13 16 1010.8 1011.6 1.4
17/04:30am 3.1 -2.4 0.8 85 0.9 N 19 24 10 13 1011.0 1011.8 1.4
17/04:00am 2.7 -1.3 0.3 84 0.9 NNE 11 17 6 9 1011.2 1012.0 1.4
17/03:30am 2.5 -2.3 0.1 84 0.9 NNW 15 17 8 9 1011.1 1011.9 1.4
17/03:00am 2.8 -2.9 0.5 85 0.9 NNW 20 26 11 14 1011.2 1012.0 1.4
17/02:30am 3.2 -3.6 1.1 86 0.8 NNW 26 35 14 19 1011.2 1012.0 1.4
17/02:00am 3.3 -3.1 0.9 84 1.0 NNW 24 30 13 16 1011.6 1012.4 1.4
17/01:30am 3.2 -2.4 1.1 86 0.8 NNW 20 30 11 16 1011.8 1012.7 1.4
17/01:00am 3.4 -2.5 1.4 87 0.8 NNW 22 30 12 16 1012.0 1012.9 1.4
17/12:30am 3.8 -2.5 1.8 87 0.8 NNW 24 28 13 15 1012.3 1013.2 1.4
17/12:00am 3.6 -2.6 2.1 90 0.6 NNW 24 30 13 16 1012.3 1013.2 1.4
 
Date/Time
EST
Temp
°C
App
Temp
°C
Dew
Point
°C
Rel
Hum
%
Delta-T
°C
Wind Press
QNH
hPa
Press
MSL
hPa
Rain since
9am
mm
Dir  Spd
km/h
Gust
km/h
Spd
kts
Gust
kts
16/11:30pm 3.9 -1.3 2.7 92 0.5 N 19 24 10 13 1012.6 1013.4 1.4
16/11:00pm 4.0 -0.7 3.0 93 0.4 N 17 20 9 11 1012.8 1013.6 1.4
16/10:30pm 3.9 -0.9 2.7 92 0.5 NNW 17 22 9 12 1012.9 1013.7 1.4
16/10:00pm 3.7 -2.4 2.7 93 0.4 NW 24 32 13 17 1012.9 1013.7 1.4
16/09:30pm 3.7 -0.7 2.7 93 0.4 NNW 15 26 8 14 1012.9 1013.7 1.4
16/09:00pm 3.2 -0.9 2.2 93 0.4 NNW 13 22 7 12 1013.1 1013.9 1.4
16/08:30pm 3.4 -2.8 2.2 92 0.5 NNW 24 32 13 17 1012.8 1013.6 1.4
16/08:00pm 3.3 -2.1 2.4 94 0.4 NNW 20 28 11 15 1013.1 1013.9 1.4
16/07:30pm 3.9 -1.2 3.2 95 0.3 NNW 19 24 10 13 1013.1 1013.9 1.4
16/07:00pm 4.5 -2.6 3.3 92 0.5 NW 30 41 16 22 1013.4 1014.3 0.4
16/06:49pm 4.7 -2.0 3.7 93 0.4 NNW 28 39 15 21 1013.2 1014.1 0.0
16/06:30pm 4.8 -2.3 3.3 90 0.6 NNW 30 37 16 20 1012.7 1013.5 0.0
16/06:00pm 4.9 -0.7 3.6 91 0.6 NNW 22 32 12 17 1012.9 1013.7 0.0
16/05:30pm 5.2 -0.9 2.9 85 1.0 N 24 30 13 16 1012.8 1013.6 0.0
16/05:00pm 5.4 1.0 2.8 83 1.1 NNW 15 22 8 12 1013.0 1013.8 0.0
16/04:30pm 5.6 0.5 2.9 83 1.2 NNW 19 26 10 14 1013.1 1013.9 0.0
16/04:00pm 5.6 1.3 3.1 84 1.1 NNW 15 24 8 13 1012.0 1012.9 0.0
16/03:30pm 5.6 -1.6 2.8 82 1.2 NW 30 37 16 20 1012.8 1013.6 0.0
16/03:00pm 7.6 0.6 2.1 68 2.4 NW 28 41 15 22 1012.7 1013.5 0.0
16/02:30pm 8.3 3.0 1.9 64 2.7 WNW 19 30 10 16 1012.5 1013.3 0.0
16/02:00pm 8.8 2.9 1.5 60 3.1 WNW 22 35 12 19 1012.6 1013.4 0.0
16/01:30pm 8.5 2.3 2.1 64 2.8 WNW 24 35 13 19 1012.9 1013.7 0.0
16/01:00pm 9.2 2.9 3.6 68 2.5 WNW 26 35 14 19 1013.3 1014.2 0.0
16/12:30pm 9.1 1.6 3.5 68 2.5 NNW 32 43 17 23 1013.9 1014.8 0.0
16/12:00pm 7.4 -0.2 3.1 74 1.9 NNW 32 41 17 22 1014.5 1015.3 0.0
16/11:30am 7.5 0.8 3.6 76 1.7 NNW 28 43 15 23 1014.8 1015.7 0.0

Latest Capital City Observations: Canberra | Sydney | Melbourne | Brisbane | Adelaide | Perth | Hobart | Darwin

Other Formats:

Comma delimited format used in spreadsheet applications
http://www.bom.gov.au/fwo/IDN60903/IDN60903.94926.axf

JavaScript Object Notation format (JSON) in row-major order
http://www.bom.gov.au/fwo/IDN60903/IDN60903.94926.json